Latest Weather Observations for Laverton

IDV60901

Issued at 7:45 am EDT Sunday 26 October 2014 (issued every 10 minutes, with the page automatically refreshed every 10 minutes)

About weather observations | Map of Melbourne area stations | Latest observations for Melbourne area | Other Formats
Station Details ID: 087031 Name: LAVERTON RAAF Lat: -37.86 Lon: 144.76 Height: 20.1 m
Data from the previous 72 hours. | See also: Recent months at Laverton
Date/Time
EDT
Tmp

°C
App
Tmp
°C
Dew
Point
°C
Rel
Hum
%
Delta-T

°C
Wind Press
QNH
hPa
Press
MSL
hPa
Rain
since
9 am
mm
Dir
 
Spd
km/h
Gust
km/h
Spd
kts
Gust
kts
26/07:30am 13.4 11.8 8.9 74 2.3 WSW 7 13 4 7 1013.7 1013.6 0.0
26/07:00am 13.3 10.9 8.8 74 2.3 SW 11 17 6 9 1014.0 1013.9 0.0
26/06:30am 13.2 10.8 8.7 74 2.3 SSW 11 17 6 9 1013.6 1013.5 0.0
26/06:00am 13.3 10.9 8.8 74 2.3 SSW 11 15 6 8 1013.5 1013.4 0.0
26/05:30am 13.4 10.7 8.9 74 2.3 SSW 13 17 7 9 1013.6 1013.5 0.0
26/05:00am 13.5 11.1 8.8 73 2.4 S 11 15 6 8 1013.5 1013.4 0.0
26/04:30am 13.6 10.9 9.1 74 2.3 S 13 15 7 8 1013.5 1013.4 0.0
26/04:00am 13.7 11.5 9.2 74 2.3 SSW 11 15 6 8 1013.5 1013.4 0.0
26/03:30am 13.8 11.6 9.5 75 2.2 SSW 11 15 6 8 1013.5 1013.4 0.0
26/03:00am 13.8 12.4 9.5 75 2.2 S 7 13 4 7 1013.4 1013.3 0.0
26/02:30am 13.9 12.1 9.5 75 2.3 SSW 9 13 5 7 1013.8 1013.7 0.0
26/02:00am 13.9 11.7 9.5 75 2.3 S 11 15 6 8 1014.4 1014.3 0.0
26/01:30am 14.0 11.9 9.6 75 2.3 SSE 11 13 6 7 1014.8 1014.8 0.0
26/01:00am 14.1 12.4 9.9 76 2.2 SSE 9 13 5 7 1015.3 1015.3 0.0
26/12:30am 14.1 12.4 9.9 76 2.2 SSE 9 13 5 7 1015.4 1015.4 0.0
26/12:00am 14.2 12.5 10.0 76 2.2 SSE 9 17 5 9 1015.8 1015.8 0.0
 
Date/Time
EDT
Tmp

°C
App
Tmp
°C
Dew
Point
°C
Rel
Hum
%
Delta-T

°C
Wind Press
QNH
hPa
Press
MSL
hPa
Rain
since
9 am
mm
Dir
 
Spd
km/h
Gust
km/h
Spd
kts
Gust
kts
25/11:30pm 14.2 12.2 10.0 76 2.2 SSE 11 17 6 9 1016.3 1016.3 0.0
25/11:00pm 14.2 11.8 10.0 76 2.2 SSE 13 19 7 10 1016.5 1016.5 0.0
25/10:30pm 14.2 11.7 9.8 75 2.3 S 13 17 7 9 1016.6 1016.6 0.0
25/10:00pm 14.1 12.1 10.1 77 2.1 S 11 17 6 9 1016.9 1016.9 0.0
25/09:30pm 13.6 11.5 9.8 78 2.0 S 11 13 6 7 1016.7 1016.7 0.0
25/09:00pm 13.9 11.5 9.9 77 2.1 S 13 19 7 10 1016.4 1016.4 0.0
25/08:30pm 14.1 10.9 10.1 77 2.1 S 17 22 9 12 1016.2 1016.2 0.0
25/08:00pm 14.3 11.1 10.1 76 2.2 S 17 22 9 12 1016.1 1016.1 0.0
25/07:30pm 14.8 11.0 9.8 72 2.6 S 20 30 11 16 1015.9 1015.9 0.0
25/07:00pm 15.2 11.5 10.0 71 2.7 S 20 28 11 15 1015.7 1015.7 0.0
25/06:30pm 15.3 11.5 9.7 69 2.9 S 20 30 11 16 1015.6 1015.6 0.0
25/06:00pm 16.1 12.4 10.0 67 3.2 S 20 30 11 16 1015.3 1015.3 0.0
25/05:30pm 16.7 12.3 10.5 67 3.3 S 24 30 13 16 1015.1 1015.1 0.0
25/05:00pm 17.2 13.2 10.6 65 3.5 S 22 30 12 16 1015.1 1015.1 0.0
25/04:30pm 17.5 13.9 10.6 64 3.7 SSE 20 28 11 15 1014.9 1014.9 0.0
25/04:00pm 17.7 13.7 10.3 62 3.9 S 22 26 12 14 1014.9 1014.9 0.0
25/03:30pm 18.3 15.6 10.2 59 4.3 SSE 15 22 8 12 1014.9 1014.9 0.0
25/03:00pm 17.8 14.6 9.9 60 4.2 SSE 17 24 9 13 1015.3 1015.3 0.0
25/02:30pm 17.9 15.5 10.0 60 4.2 SE 13 22 7 12 1015.6 1015.6 0.0
25/02:00pm 17.7 16.1 10.1 61 4.0 SSE 9 13 5 7 1015.7 1015.7 0.0
25/01:30pm 17.5 15.1 10.1 62 3.9 SSW 13 19 7 10 1016.2 1016.2 0.0
25/01:00pm 16.4 14.7 10.0 66 3.4 WSW 9 15 5 8 1016.5 1016.5 0.0
25/12:30pm 16.3 14.7 10.2 67 3.2 SE 9 15 5 8 1016.8 1016.8 0.0
25/12:00pm 15.7 13.3 10.0 69 3.0 SSE 13 19 7 10 1017.3 1017.3 0.0
25/11:30am 15.5 12.8 10.5 72 2.6 SSE 15 20 8 11 1017.6 1017.6 0.0
25/11:00am 15.5 12.9 10.7 73 2.5 SE 15 20 8 11 1017.8 1017.8 0.0
25/10:30am 15.0 12.0 10.6 75 2.3 SSE 17 20 9 11 1017.9 1017.9 0.0
25/10:00am 14.8 11.5 10.8 77 2.1 S 19 26 10 14 1017.7 1017.7 0.0
25/09:30am 15.0 12.1 11.0 77 2.1 S 17 24 9 13 1017.6 1017.6 0.0
25/09:00am 14.9 13.0 10.5 75 2.3 S 11 15 6 8 1017.7 1017.7 0.0
25/08:30am 14.6 12.7 10.4 76 2.2 SSW 11 13 6 7 1017.9 1017.9 0.0
25/08:00am 14.6 12.7 10.6 77 2.1 S 11 17 6 9 1017.7 1017.7 0.0
25/07:30am 14.5 12.7 10.7 78 2.0 S 11 17 6 9 1017.5 1017.5 0.0
25/07:00am 14.4 12.1 10.6 78 2.0 S 13 17 7 9 1017.1 1017.1 0.0
25/06:30am 14.5 12.4 9.7 73 2.5 SSW 11 13 6 7 1017.0 1017.0 0.0
25/06:00am 14.6 12.8 9.6 72 2.6 SW 9 11 5 6 1016.8 1016.8 0.0
25/05:30am 14.6 12.4 9.4 71 2.7 SW 11 15 6 8 1016.8 1016.8 0.0
25/05:00am 14.6 12.8 9.4 71 2.7 WSW 9 15 5 8 1016.5 1016.5 0.0
25/04:30am 14.5 11.7 9.9 74 2.4 SW 15 20 8 11 1016.3 1016.3 0.0
25/04:00am 14.4 12.1 10.6 78 2.0 SW 13 17 7 9 1016.4 1016.4 0.0
25/03:30am 14.5 12.0 10.9 79 1.9 SW 15 20 8 11 1016.4 1016.4 0.0
25/03:00am 14.4 12.3 11.0 80 1.8 SW 13 17 7 9 1016.4 1016.4 0.0
25/02:30am 14.2 11.7 11.2 82 1.6 SW 15 20 8 11 1016.6 1016.6 0.0
25/02:00am 14.5 12.2 11.6 83 1.6 SSW 15 20 8 11 1016.6 1016.6 0.0
25/01:30am 14.8 12.1 11.6 81 1.7 SW 17 26 9 14 1016.7 1016.7 0.0
25/01:00am 14.9 12.2 11.7 81 1.7 SW 17 22 9 12 1016.8 1016.8 0.0
25/12:30am 15.3 13.4 11.9 80 1.8 SW 13 19 7 10 1016.7 1016.7 0.0
25/12:00am 15.3 14.2 12.1 81 1.7 SW 9 15 5 8 1016.6 1016.6 0.0
 
Date/Time
EDT
Tmp

°C
App
Tmp
°C
Dew
Point
°C
Rel
Hum
%
Delta-T

°C
Wind Press
QNH
hPa
Press
MSL
hPa
Rain
since
9 am
mm
Dir
 
Spd
km/h
Gust
km/h
Spd
kts
Gust
kts
24/11:30pm 15.1 14.2 12.6 85 1.4 SW 9 13 5 7 1016.5 1016.5 0.0
24/11:00pm 15.5 14.4 13.0 85 1.4 SSE 11 17 6 9 1016.5 1016.5 0.0
24/10:40pm 15.5 14.0 13.2 86 1.3 SSE 13 17 7 9 1016.3 1016.3 0.0
24/10:31pm 15.4 13.9 13.1 86 1.3 SSE 13 17 7 9 1016.2 1016.2 0.0
24/10:30pm 15.4 13.9 13.1 86 1.3 SSE 13 17 7 9 1016.2 1016.2 0.0
24/10:00pm 15.2 14.1 13.1 87 1.2 SSE 11 17 6 9 1015.8 1015.8 0.0
24/09:30pm 15.2 13.3 13.1 87 1.2 S 15 24 8 13 1015.4 1015.4 0.0
24/09:29pm 15.2 13.3 13.1 87 1.2 S 15 24 8 13 1015.3 1015.3 0.0
24/09:01pm 15.4 12.6 13.2 87 1.2 S 20 28 11 15 1014.7 1014.6 0.0
24/09:00pm 15.4 12.6 13.2 87 1.2 S 20 28 11 15 1014.7 1014.6 0.0
24/08:30pm 15.7 13.2 14.1 90 0.9 S 20 30 11 16 1013.8 1013.7 0.0
24/08:29pm 15.7 13.2 14.1 90 0.9 S 20 30 11 16 1013.7 1013.6 0.0
24/08:00pm 15.7 12.1 14.1 90 0.9 S 26 35 14 19 1013.2 1013.1 0.0
24/07:55pm 15.7 12.3 13.7 88 1.1 S 24 33 13 18 1013.0 1012.9 0.0
24/07:51pm 15.9 12.5 13.7 87 1.2 S 24 37 13 20 1012.9 1012.8 0.0
24/07:30pm 17.6 14.7 14.1 80 2.0 S 22 32 12 17 1012.3 1012.2 0.0
24/07:00pm 19.2 16.2 13.8 71 3.1 S 22 28 12 15 1011.5 1011.5 0.0
24/06:30pm 21.1 17.9 14.3 65 4.0 S 24 30 13 16 1010.7 1010.7 0.0
24/06:00pm 24.3 21.3 13.8 52 6.2 S 22 32 12 17 1010.2 1010.2 0.0
24/05:30pm 26.0 23.1 12.8 44 7.7 SSE 20 32 11 17 1009.7 1009.7 0.0
24/05:00pm 28.7 25.7 10.8 33 10.2 SE 17 24 9 13 1009.3 1009.3 0.0
24/04:30pm 28.9 26.5 11.5 34 10.0 ESE 15 22 8 12 1009.3 1009.3 0.0
24/04:00pm 29.5 27.7 12.0 34 10.2 SE 13 20 7 11 1009.4 1009.4 0.0
24/03:30pm 28.8 27.2 12.7 37 9.5 SE 13 20 7 11 1009.7 1009.7 0.0
24/03:00pm 27.8 26.0 13.3 40 8.6 SSE 15 19 8 10 1009.9 1009.9 0.0
24/02:30pm 26.8 25.9 14.9 48 7.2 SSE 13 19 7 10 1010.3 1010.3 0.0
24/02:00pm 24.3 22.8 15.2 57 5.5 SE 17 20 9 11 1010.6 1010.6 0.0
24/01:30pm 26.8 26.3 15.8 51 6.7 ESE 13 19 7 10 1010.4 1010.4 0.0
24/01:00pm 24.3 23.3 15.5 58 5.3 ESE 15 20 8 11 1010.6 1010.6 0.0
24/12:30pm 25.4 24.7 15.4 54 6.0 SSE 13 20 7 11 1010.8 1010.8 0.0
24/12:00pm 25.9 25.9 15.3 52 6.4 SE 9 15 5 8 1011.3 1011.3 0.0
24/11:30am 24.2 24.4 14.3 54 5.9 SW 6 9 3 5 1011.5 1011.5 0.0
24/11:00am 22.4 22.4 14.3 60 4.8 SSW 7 15 4 8 1011.7 1011.6 0.0
24/10:30am 21.1 20.8 14.3 65 4.0 W 9 11 5 6 1011.7 1011.6 0.0
24/10:00am 19.1 18.7 14.1 73 2.9 WNW 9 13 5 7 1011.8 1011.7 0.0
24/09:30am 17.7 18.0 14.6 82 1.8 W 6 11 3 6 1012.0 1011.9 0.0
24/09:07am 17.1 18.1 15.4 90 1.0 NNE 4 9 2 5 1011.9 1011.8 0.0
24/09:00am 16.5 16.8 15.0 91 0.9 N 7 13 4 7 1012.1 1012.0 0.0
24/08:30am 15.3 14.7 14.5 95 0.5 NNW 11 17 6 9 1012.3 1012.2 0.0
24/08:00am 15.1 14.5 14.6 97 0.3 N 11 15 6 8 1012.4 1012.3 0.0
24/07:30am 14.9 14.7 14.6 98 0.2 N 9 13 5 7 1012.4 1012.3 0.0
24/07:00am 14.7 14.8 14.5 99 0.1 N 7 11 4 6 1012.4 1012.3 0.0
24/06:30am 14.6 14.7 14.4 99 0.1 N 7 11 4 6 1012.5 1012.4 0.0
24/06:14am 14.3 14.5 14.1 99 0.1 N 6 9 3 5 1012.3 1012.2 0.0
24/06:00am 14.0 13.9 13.8 99 0.1 N 7 7 4 4 1012.1 1012.0 0.0
24/05:30am 13.7 13.5 13.5 99 0.1 N 7 11 4 6 1012.4 1012.3 0.0
24/05:13am 13.3 12.6 13.1 99 0.1 N 9 9 5 5 1012.4 1012.3 0.0
24/05:00am 13.2 12.4 13.0 99 0.1 N 9 9 5 5 1012.5 1012.4 0.0
24/04:37am 13.2 12.8 13.0 99 0.1 N 7 9 4 5 1012.6 1012.5 0.0
24/04:30am 13.3 12.6 13.1 99 0.1 N 9 11 5 6 1012.6 1012.5 0.0
24/04:09am 12.9 12.0 12.7 99 0.1 N 9 11 5 6 1012.5 1012.4 0.0
24/04:00am 12.9 12.4 12.7 99 0.1 N 7 11 4 6 1012.5 1012.4 0.0
24/03:30am 12.8 11.9 12.5 98 0.2 N 9 11 5 6 1012.7 1012.6 0.0
24/03:06am 12.8 11.9 12.5 98 0.2 N 9 9 5 5 1012.8 1012.7 0.0
24/03:00am 12.8 11.9 12.5 98 0.2 N 9 11 5 6 1012.9 1012.8 0.0
24/02:30am 12.2 11.0 11.7 97 0.3 NNW 9 13 5 7 1013.2 1013.1 0.0
24/02:00am 12.2 10.6 11.6 96 0.3 NW 11 13 6 7 1013.6 1013.5 0.0
24/01:30am 12.4 10.9 11.8 96 0.3 NW 11 13 6 7 1014.1 1014.0 0.0
24/01:00am 12.4 11.2 11.6 95 0.4 NNW 9 11 5 6 1014.5 1014.4 0.0
24/12:30am 12.6 11.0 11.7 94 0.5 NW 11 15 6 8 1014.7 1014.6 0.0
24/12:00am 12.5 11.2 11.2 92 0.7 NNW 9 11 5 6 1014.9 1014.9 0.0
 
Date/Time
EDT
Tmp

°C
App
Tmp
°C
Dew
Point
°C
Rel
Hum
%
Delta-T

°C
Wind Press
QNH
hPa
Press
MSL
hPa
Rain
since
9 am
mm
Dir
 
Spd
km/h
Gust
km/h
Spd
kts
Gust
kts
23/11:30pm 14.0 14.7 12.2 89 1.0 CALM 0 0 0 0 1015.1 1015.1 0.0
23/11:00pm 15.1 15.0 13.3 89 1.0 SSE 6 7 3 4 1015.3 1015.3 0.0
23/10:30pm 15.1 14.7 13.1 88 1.1 S 7 9 4 5 1015.5 1015.5 0.0
23/10:00pm 15.4 14.7 13.2 87 1.2 SSE 9 15 5 8 1015.6 1015.6 0.0
23/09:30pm 15.7 14.7 13.4 86 1.3 SE 11 15 6 8 1015.6 1015.6 0.0
23/09:00pm 15.8 13.6 13.3 85 1.4 SE 17 22 9 12 1015.4 1015.4 0.0
23/08:30pm 16.0 13.8 13.3 84 1.5 SE 17 24 9 13 1015.3 1015.3 0.0
23/08:00pm 16.6 14.1 13.5 82 1.7 SE 19 26 10 14 1015.3 1015.3 0.0
23/07:30pm 16.9 13.9 13.6 81 1.9 SE 22 33 12 18 1015.3 1015.3 0.0
23/07:00pm 17.6 14.3 13.9 79 2.1 SE 24 37 13 20 1015.5 1015.5 0.0
23/06:30pm 18.2 15.3 13.9 76 2.5 SSE 22 33 12 18 1015.4 1015.4 0.0
23/06:00pm 18.5 16.2 14.0 75 2.6 SSE 19 26 10 14 1015.8 1015.8 0.0
23/05:30pm 18.5 15.9 13.8 74 2.7 S 20 28 11 15 1015.9 1015.9 0.0
23/05:00pm 18.3 15.6 13.4 73 2.8 S 20 26 11 14 1016.1 1016.1 0.0
23/04:30pm 18.1 15.2 13.0 72 2.9 SSW 20 28 11 15 1016.5 1016.5 0.0
23/04:00pm 18.1 15.4 13.0 72 2.9 S 19 26 10 14 1016.8 1016.8 0.0
23/03:30pm 18.2 16.7 13.1 72 2.9 S 13 22 7 12 1017.1 1017.1 0.0
23/03:00pm 17.6 16.0 12.7 73 2.7 S 13 19 7 10 1017.5 1017.5 0.0
23/02:30pm 17.4 15.7 12.5 73 2.7 SSE 13 20 7 11 1018.0 1018.0 0.0
23/02:00pm 16.7 14.1 12.0 74 2.6 SSE 17 24 9 13 1018.5 1018.5 0.0
23/01:32pm 16.8 14.7 12.3 75 2.5 SSE 15 20 8 11 1018.6 1018.6 0.0
23/01:30pm 16.8 14.7 12.5 76 2.4 SSE 15 20 8 11 1018.6 1018.6 0.0
23/01:00pm 16.2 14.2 12.6 79 2.0 S 15 20 8 11 1019.1 1019.1 0.0
23/12:30pm 15.2 12.6 12.1 82 1.7 SSE 17 20 9 11 1019.6 1019.6 0.0
23/12:00pm 15.2 12.7 12.3 83 1.6 SSE 17 22 9 12 1019.8 1019.8 0.0
23/11:30am 15.3 13.6 12.4 83 1.6 SSE 13 17 7 9 1020.0 1020.0 0.0
23/11:00am 15.2 13.1 12.5 84 1.5 SSE 15 19 8 10 1020.3 1020.3 0.0
23/10:33am 14.8 12.5 13.0 89 1.0 S 17 20 9 11 1020.5 1020.5 0.0
23/10:30am 14.7 12.4 13.1 90 0.9 S 17 20 9 11 1020.5 1020.5 0.0
23/10:00am 14.2 13.1 13.1 93 0.6 SSE 11 17 6 9 1020.6 1020.6 0.0
23/09:30am 14.0 12.8 12.7 92 0.7 S 11 13 6 7 1020.8 1020.8 0.0
23/09:00am 14.0 12.0 12.6 91 0.8 S 15 19 8 10 1020.6 1020.6 0.0
23/08:35am 14.4 12.7 12.4 88 1.1 SSE 13 17 7 9 1020.7 1020.7 0.0
23/08:30am 14.6 12.6 12.6 88 1.1 SSE 15 19 8 10 1020.7 1020.7 0.0
23/08:00am 14.8 13.4 12.3 85 1.4 SSE 11 17 6 9 1020.3 1020.3 0.0

Latest Capital City Observations: Canberra | Sydney | Melbourne | Brisbane | Adelaide | Perth | Hobart | Darwin

Other Formats:

Comma delimited format used in spreadsheet applications
http://www.bom.gov.au/fwo/IDV60901/IDV60901.94865.axf

JavaScript Object Notation format (JSON) in row-major order
http://www.bom.gov.au/fwo/IDV60901/IDV60901.94865.json